createdAt,value
2018-11-28T00:02:17.425Z,14.53
2018-11-28T00:04:45.609Z,15.43
2018-11-28T00:07:13.789Z,16.20
2018-11-28T00:09:41.965Z,15.47
2018-11-28T00:12:10.157Z,16.10
2018-11-28T00:14:38.345Z,15.90
2018-11-28T00:17:06.676Z,14.47
2018-11-28T00:19:34.854Z,14.40
2018-11-28T00:22:03.042Z,14.37
2018-11-28T00:24:31.204Z,14.63
2018-11-28T00:26:59.380Z,15.37
2018-11-28T00:29:27.540Z,14.93
2018-11-28T00:31:55.701Z,15.30
2018-11-28T00:34:23.886Z,14.93
2018-11-28T00:36:52.069Z,16.07
2018-11-28T00:39:20.549Z,15.70
2018-11-28T00:41:48.814Z,14.27
2018-11-28T00:44:16.958Z,16.00
2018-11-28T00:46:45.132Z,16.40
2018-11-28T00:49:13.297Z,14.57
2018-11-28T00:51:41.477Z,14.60
2018-11-28T00:54:09.657Z,14.63
2018-11-28T00:56:37.840Z,13.87
2018-11-28T00:59:06.021Z,14.67
2018-11-28T01:01:34.208Z,13.83
2018-11-28T01:04:02.374Z,14.93
2018-11-28T01:06:30.813Z,12.80
2018-11-28T01:08:58.980Z,14.30
2018-11-28T01:11:27.152Z,14.20
2018-11-28T01:13:55.385Z,14.07
2018-11-28T01:16:23.558Z,14.57
2018-11-28T01:18:51.729Z,14.57
2018-11-28T01:21:20.221Z,15.70
2018-11-28T01:23:48.387Z,15.37
2018-11-28T01:26:16.556Z,15.53
2018-11-28T01:28:46.557Z,15.97
2018-11-28T01:31:12.923Z,15.90
2018-11-28T01:33:41.101Z,15.33
2018-11-28T01:36:09.273Z,15.60
2018-11-28T01:38:37.748Z,16.97
2018-11-28T01:41:06.006Z,17.77
2018-11-28T01:43:34.198Z,17.27
2018-11-28T01:46:02.389Z,18.20
2018-11-28T01:48:30.566Z,17.97
2018-11-28T01:50:59.305Z,17.80
2018-11-28T01:53:27.493Z,19.90
2018-11-28T01:55:55.665Z,18.63
2018-11-28T01:58:23.928Z,18.93
2018-11-28T02:00:52.117Z,20.23
2018-11-28T02:03:20.301Z,18.30
2018-11-28T02:05:48.481Z,17.77
2018-11-28T02:08:16.665Z,18.60
2018-11-28T02:10:44.870Z,19.17
2018-11-28T02:13:13.045Z,17.27
2018-11-28T02:15:41.244Z,17.50
2018-11-28T02:18:09.408Z,17.60
2018-11-28T02:20:37.614Z,18.20
2018-11-28T02:23:06.209Z,18.57
2018-11-28T02:25:34.389Z,18.13
2018-11-28T02:28:02.578Z,17.77
2018-11-28T02:30:30.749Z,16.83
2018-11-28T02:32:58.922Z,17.90
2018-11-28T02:35:27.160Z,16.63
2018-11-28T02:37:55.313Z,18.37
2018-11-28T02:40:23.501Z,17.57
2018-11-28T02:42:52.156Z,15.20
2018-11-28T02:45:21.136Z,16.33
2018-11-28T02:47:51.154Z,15.93
2018-11-28T02:50:19.383Z,14.13
2018-11-28T02:52:47.556Z,15.50
2018-11-28T02:55:16.471Z,16.93
2018-11-28T02:57:45.557Z,16.33
2018-11-28T03:00:21.863Z,16.47
2018-11-28T03:02:50.042Z,14.63
2018-11-28T03:05:18.263Z,15.23
2018-11-28T03:07:46.442Z,15.87
2018-11-28T03:10:19.652Z,17.07
2018-11-28T03:12:47.870Z,17.17
2018-11-28T03:15:18.577Z,15.73
2018-11-28T03:17:46.756Z,16.17
2018-11-28T03:20:14.958Z,15.87
2018-11-28T03:22:43.161Z,16.40
2018-11-28T03:25:11.749Z,14.60
2018-11-28T03:27:39.968Z,15.90
2018-11-28T03:30:12.575Z,16.80
2018-11-28T03:32:40.906Z,15.93
2018-11-28T03:35:10.531Z,15.37
2018-11-28T03:37:38.706Z,17.83
2018-11-28T03:40:07.169Z,16.93
2018-11-28T03:42:35.352Z,17.00
2018-11-28T03:45:03.817Z,19.10
2018-11-28T03:47:32.004Z,17.10
2018-11-28T03:50:00.181Z,16.40
2018-11-28T03:52:28.365Z,16.33
2018-11-28T03:54:56.568Z,17.00
2018-11-28T03:57:24.764Z,14.93
2018-11-28T03:59:52.941Z,15.87
2018-11-28T04:02:21.117Z,15.80
2018-11-28T04:04:49.325Z,16.57
2018-11-28T04:07:17.520Z,17.50
2018-11-28T04:09:45.693Z,18.33
2018-11-28T04:12:13.882Z,17.00
2018-11-28T04:14:42.073Z,15.43
2018-11-28T04:17:10.282Z,17.30
2018-11-28T04:19:38.457Z,16.30
2018-11-28T04:22:06.640Z,15.80
2018-11-28T04:24:35.271Z,16.20
2018-11-28T04:27:03.426Z,15.27
2018-11-28T04:29:31.589Z,14.80
2018-11-28T04:31:59.793Z,14.30
2018-11-28T04:34:27.958Z,16.17
2018-11-28T04:36:56.137Z,15.33
2018-11-28T04:39:24.341Z,15.83
2018-11-28T04:41:52.525Z,16.17
2018-11-28T04:44:20.710Z,16.37
2018-11-28T04:46:48.941Z,18.40
2018-11-28T04:49:17.129Z,17.87
2018-11-28T04:51:45.619Z,18.47
2018-11-28T04:54:13.788Z,17.67
2018-11-28T04:56:41.965Z,16.70
2018-11-28T04:59:10.153Z,19.20
2018-11-28T05:01:38.393Z,18.97
2018-11-28T05:04:06.586Z,18.10
2018-11-28T05:07:50.671Z,20.83
2018-11-28T05:10:22.837Z,17.03
2018-11-28T05:12:51.480Z,18.47
2018-11-28T05:15:20.828Z,18.67
2018-11-28T05:17:49.906Z,18.77
2018-11-28T05:20:20.294Z,18.40
2018-11-28T05:22:48.492Z,17.83
2018-11-28T05:25:20.289Z,17.77
2018-11-28T05:27:49.262Z,18.50
2018-11-28T05:30:22.644Z,18.37
2018-11-28T05:32:50.841Z,17.77
2018-11-28T05:35:21.107Z,17.37
2018-11-28T05:37:49.313Z,16.77
2018-11-28T05:40:21.085Z,17.50
2018-11-28T05:42:49.349Z,16.30
2018-11-28T05:45:17.547Z,15.67
2018-11-28T05:47:45.783Z,15.07
2018-11-28T05:50:16.134Z,16.57
2018-11-28T05:52:44.343Z,17.07
2018-11-28T05:55:13.313Z,15.73
2018-11-28T05:57:41.505Z,18.07
2018-11-28T06:00:20.721Z,19.23
2018-11-28T06:02:48.934Z,18.67
2018-11-28T06:05:17.125Z,18.60
2018-11-28T06:07:45.325Z,19.27
2018-11-28T06:10:13.525Z,20.70
2018-11-28T06:12:41.720Z,21.10
2018-11-28T06:15:11.393Z,25.43
2018-11-28T06:17:39.605Z,25.07
2018-11-28T06:20:10.512Z,22.43
2018-11-28T06:22:38.700Z,21.97
2018-11-28T06:25:15.979Z,24.10
2018-11-28T06:27:37.700Z,22.83
2018-11-28T06:30:08.333Z,24.43
2018-11-28T06:32:36.545Z,23.50
2018-11-28T06:35:06.201Z,21.60
2018-11-28T06:37:34.421Z,22.60
2018-11-28T06:40:02.629Z,23.33
2018-11-28T06:42:30.812Z,21.20
2018-11-28T06:44:58.996Z,23.60
2018-11-28T06:47:27.190Z,22.00
2018-11-28T06:49:55.429Z,21.80
2018-11-28T06:52:23.622Z,21.47
2018-11-28T06:54:52.389Z,22.43
2018-11-28T06:57:20.583Z,23.07
2018-11-28T06:59:48.776Z,23.60
2018-11-28T07:02:16.973Z,25.40
2018-11-28T07:04:45.160Z,26.80
2018-11-28T07:07:13.332Z,24.93
2018-11-28T07:09:41.538Z,24.33
2018-11-28T07:12:09.753Z,23.40
2018-11-28T07:14:38.361Z,23.20
2018-11-28T07:17:06.843Z,21.93
2018-11-28T07:19:35.049Z,20.10
2018-11-28T07:22:03.636Z,21.83
2018-11-28T07:24:31.793Z,20.67
2018-11-28T07:26:59.981Z,21.10
2018-11-28T07:29:28.173Z,24.03
2018-11-28T07:31:56.349Z,23.47
2018-11-28T07:34:24.605Z,23.90
2018-11-28T07:36:52.751Z,24.63
2018-11-28T07:39:20.949Z,26.13
2018-11-28T07:41:49.144Z,25.00
2018-11-28T07:44:17.321Z,24.47
2018-11-28T07:46:45.860Z,22.97
2018-11-28T07:49:14.041Z,22.83
2018-11-28T07:51:42.223Z,25.47
2018-11-28T07:54:10.416Z,21.77
2018-11-28T07:56:38.600Z,21.93
2018-11-28T07:59:06.777Z,19.23
2018-11-28T08:01:35.321Z,17.67
2018-11-28T08:04:03.513Z,18.70
2018-11-28T08:06:31.723Z,19.43
2018-11-28T08:08:59.927Z,20.37
2018-11-28T08:11:28.103Z,17.90
2018-11-28T08:13:56.298Z,18.63
2018-11-28T08:16:24.465Z,17.30
2018-11-28T08:18:52.657Z,17.13
2018-11-28T08:21:20.838Z,17.87
2018-11-28T08:23:49.039Z,17.17
2018-11-28T08:26:17.265Z,16.07
2018-11-28T08:28:45.437Z,16.43
2018-11-28T08:31:13.643Z,18.27
2018-11-28T08:33:41.841Z,16.53
2018-11-28T08:36:10.029Z,17.50
2018-11-28T08:38:38.229Z,17.13
2018-11-28T08:41:06.801Z,16.17
2018-11-28T08:43:34.971Z,16.97
2018-11-28T08:46:03.162Z,15.67
2018-11-28T08:48:31.342Z,14.17
2018-11-28T08:50:59.523Z,17.20
2018-11-28T08:53:27.721Z,15.67
2018-11-28T08:55:55.913Z,15.87
2018-11-28T08:58:24.098Z,15.07
2018-11-28T09:00:53.098Z,15.90
2018-11-28T09:03:21.302Z,15.33
2018-11-28T09:05:49.493Z,15.97
2018-11-28T09:08:17.677Z,15.03
2018-11-28T09:10:45.859Z,14.40
2018-11-28T09:13:14.046Z,14.40
2018-11-28T09:15:42.220Z,15.00
2018-11-28T09:18:10.390Z,15.63
2018-11-28T09:20:38.569Z,13.73
2018-11-28T09:23:07.224Z,15.00
2018-11-28T09:25:35.377Z,12.30
2018-11-28T09:28:03.729Z,13.30
2018-11-28T09:30:32.021Z,13.03
2018-11-28T09:33:00.293Z,14.30
2018-11-28T09:35:28.683Z,14.03
2018-11-28T09:37:56.854Z,13.23
2018-11-28T09:40:26.090Z,13.23
2018-11-28T09:42:55.342Z,13.07
2018-11-28T09:45:23.616Z,12.73
2018-11-28T09:47:51.824Z,12.13
2018-11-28T09:50:23.158Z,12.80
2018-11-28T09:52:54.335Z,12.80
2018-11-28T09:55:24.821Z,12.67
2018-11-28T09:57:53.105Z,12.40
2018-11-28T10:00:22.342Z,13.17
2018-11-28T10:02:51.397Z,12.47
2018-11-28T10:05:20.816Z,12.07
2018-11-28T10:07:48.996Z,11.60
2018-11-28T10:10:17.221Z,12.33
2018-11-28T10:12:45.393Z,11.83
2018-11-28T10:15:17.901Z,11.73
2018-11-28T10:17:46.190Z,11.47
2018-11-28T10:20:15.092Z,11.43
2018-11-28T10:22:43.580Z,11.40
2018-11-28T10:25:13.810Z,11.33
2018-11-28T10:27:42.364Z,12.10
2018-11-28T10:30:15.073Z,12.53
2018-11-28T10:32:43.272Z,11.97
2018-11-28T10:35:11.533Z,11.33
2018-11-28T10:37:39.717Z,11.90
2018-11-28T10:40:11.657Z,11.27
2018-11-28T10:42:39.885Z,10.90
2018-11-28T10:45:09.708Z,10.53
2018-11-28T10:47:37.906Z,11.93
2018-11-28T10:50:08.174Z,10.97
2018-11-28T10:52:36.294Z,10.83
2018-11-28T10:55:05.343Z,11.30
2018-11-28T10:57:33.624Z,11.30
2018-11-28T11:00:01.774Z,11.83
2018-11-28T11:02:35.494Z,11.73
2018-11-28T11:05:09.296Z,10.77
2018-11-28T11:07:43.108Z,11.27
2018-11-28T11:10:16.818Z,11.47
2018-11-28T11:12:50.515Z,11.03
2018-11-28T11:15:18.702Z,10.57
2018-11-28T11:17:46.921Z,10.50
2018-11-28T11:20:15.141Z,11.43
2018-11-28T11:22:43.319Z,11.03
2018-11-28T11:25:11.565Z,10.93
2018-11-28T11:27:39.733Z,10.70
2018-11-28T11:30:10.049Z,10.37
2018-11-28T11:32:38.240Z,11.53
2018-11-28T11:35:08.319Z,10.90
2018-11-28T11:37:36.548Z,9.60
2018-11-28T11:40:07.472Z,11.30
2018-11-28T11:42:35.649Z,11.83
2018-11-28T11:45:03.876Z,11.60
2018-11-28T11:47:32.116Z,11.23
2018-11-28T11:50:00.510Z,10.20
2018-11-28T11:52:28.682Z,11.50
2018-11-28T11:54:56.865Z,10.90
2018-11-28T11:57:25.050Z,10.60
2018-11-28T11:59:53.233Z,11.00
2018-11-28T12:02:21.426Z,11.07
2018-11-28T12:04:49.609Z,10.73
2018-11-28T12:07:17.781Z,10.13
2018-11-28T12:09:45.977Z,10.90
2018-11-28T12:12:14.161Z,10.37
2018-11-28T12:14:42.355Z,10.00
2018-11-28T12:17:10.526Z,9.83
2018-11-28T12:19:38.710Z,10.20
2018-11-28T12:22:07.312Z,10.03
2018-11-28T12:24:35.489Z,10.23
2018-11-28T12:27:03.869Z,10.00
2018-11-28T12:29:32.041Z,10.70
2018-11-28T12:32:00.213Z,9.50
2018-11-28T12:34:28.423Z,10.13
2018-11-28T12:36:56.618Z,11.00
2018-11-28T12:39:24.816Z,9.70
2018-11-28T12:41:53.290Z,10.43
2018-11-28T12:44:21.506Z,8.97
2018-11-28T12:46:49.672Z,10.17
2018-11-28T12:49:18.208Z,9.33
2018-11-28T12:51:47.085Z,9.40
2018-11-28T12:54:15.268Z,9.10
2018-11-28T12:56:43.479Z,10.87
2018-11-28T12:59:11.957Z,9.40
2018-11-28T13:01:40.177Z,10.03
2018-11-28T13:04:08.343Z,10.20
2018-11-28T13:06:36.697Z,10.00
2018-11-28T13:09:06.300Z,11.17
2018-11-28T13:11:34.473Z,10.47
2018-11-28T13:14:02.705Z,10.87
2018-11-28T13:16:30.952Z,10.27
2018-11-28T13:18:59.209Z,10.77
2018-11-28T13:21:27.386Z,9.97
2018-11-28T13:23:55.570Z,9.97
2018-11-28T13:26:24.101Z,9.33
2018-11-28T13:28:52.305Z,9.70
2018-11-28T13:31:20.513Z,9.73
2018-11-28T13:33:48.709Z,9.03
2018-11-28T13:36:22.524Z,10.17
2018-11-28T13:38:45.129Z,9.47
2018-11-28T13:41:13.405Z,11.13
2018-11-28T13:43:41.597Z,9.47
2018-11-28T13:46:09.787Z,9.53
2018-11-28T13:48:37.965Z,9.53
2018-11-28T13:51:06.173Z,9.07
2018-11-28T13:53:34.369Z,8.20
2018-11-28T13:58:30.716Z,8.93
2018-11-28T14:00:58.901Z,8.60
2018-11-28T14:03:27.418Z,8.87
2018-11-28T14:05:55.615Z,8.57
2018-11-28T14:08:23.763Z,7.80
2018-11-28T14:10:51.953Z,9.37
2018-11-28T14:13:20.141Z,8.87
2018-11-28T14:15:48.329Z,7.83
2018-11-28T14:18:17.609Z,7.50
2018-11-28T14:20:45.823Z,8.87
2018-11-28T14:23:14.001Z,8.00
2018-11-28T14:25:42.619Z,7.73
2018-11-28T14:28:11.011Z,7.37
2018-11-28T14:30:39.258Z,7.10
2018-11-28T14:33:07.431Z,7.73
2018-11-28T14:35:35.614Z,7.60
2018-11-28T14:38:03.812Z,8.03
2018-11-28T14:40:32.288Z,7.77
2018-11-28T14:43:00.485Z,7.07
2018-11-28T14:45:29.589Z,7.50
2018-11-28T14:47:57.782Z,7.67
2018-11-28T14:50:28.187Z,8.07
2018-11-28T14:52:58.501Z,7.47
2018-11-28T14:55:28.029Z,7.17
2018-11-28T14:57:56.275Z,7.37
2018-11-28T15:00:25.482Z,7.93
2018-11-28T15:02:54.977Z,7.40
2018-11-28T15:05:38.360Z,7.80
2018-11-28T15:08:10.770Z,7.70
2018-11-28T15:11:11.000Z,7.40
2018-11-28T15:13:39.783Z,7.67
2018-11-28T15:16:07.989Z,7.60
2018-11-28T15:18:36.233Z,7.87
2018-11-28T15:21:04.765Z,8.17
2018-11-28T15:23:32.963Z,8.20
2018-11-28T15:26:01.149Z,8.67
2018-11-28T15:28:29.321Z,9.13
2018-11-28T15:30:57.536Z,9.47
2018-11-28T15:33:25.705Z,7.93
2018-11-28T15:35:53.911Z,8.47
2018-11-28T15:38:22.161Z,8.27
2018-11-28T15:40:50.355Z,8.50
2018-11-28T15:43:18.537Z,7.77
2018-11-28T15:45:47.055Z,8.40
2018-11-28T15:48:15.243Z,7.27
2018-11-28T15:50:43.464Z,8.43
2018-11-28T15:53:11.628Z,9.13
2018-11-28T15:55:39.831Z,8.60
2018-11-28T15:58:08.009Z,8.63
2018-11-28T16:00:36.336Z,8.03
2018-11-28T16:03:04.524Z,9.27
2018-11-28T16:05:32.717Z,8.17
2018-11-28T16:08:00.917Z,8.80
2018-11-28T16:10:33.556Z,8.03
2018-11-28T16:13:01.754Z,8.80
2018-11-28T16:15:31.838Z,8.10
2018-11-28T16:18:00.013Z,9.13
2018-11-28T16:20:28.197Z,8.70
2018-11-28T16:23:04.142Z,8.67
2018-11-28T16:25:24.633Z,8.50
2018-11-28T16:27:52.830Z,8.90
2018-11-28T16:30:21.056Z,8.73
2018-11-28T16:32:49.247Z,8.03
2018-11-28T16:35:18.070Z,8.10
2018-11-28T16:37:46.286Z,9.03
2018-11-28T16:40:15.225Z,8.33
2018-11-28T16:42:43.514Z,8.00
2018-11-28T16:45:13.923Z,9.27
2018-11-28T16:47:42.136Z,8.63
2018-11-28T16:50:11.172Z,7.90
2018-11-28T16:52:39.374Z,9.07
2018-11-28T16:55:08.979Z,8.50
2018-11-28T16:57:37.178Z,8.50
2018-11-28T17:00:09.617Z,8.87
2018-11-28T17:02:37.826Z,9.33
2018-11-28T17:05:11.105Z,8.53
2018-11-28T17:07:39.552Z,8.40
2018-11-28T17:10:09.966Z,8.43
2018-11-28T17:12:38.172Z,8.67
2018-11-28T17:15:08.693Z,8.03
2018-11-28T17:17:36.908Z,9.13
2018-11-28T17:20:08.103Z,8.37
2018-11-28T17:22:36.405Z,8.70
2018-11-28T17:25:05.378Z,7.90
2018-11-28T17:27:33.555Z,8.53
2018-11-28T17:30:01.829Z,8.23
2018-11-28T17:32:29.997Z,9.10
2018-11-28T17:34:58.186Z,9.23
2018-11-28T17:37:26.769Z,8.67
2018-11-28T17:39:54.952Z,8.47
2018-11-28T17:42:23.129Z,8.57
2018-11-28T17:44:51.313Z,8.70
2018-11-28T17:47:19.506Z,8.70
2018-11-28T17:49:47.704Z,7.77
2018-11-28T17:52:15.930Z,8.70
2018-11-28T17:54:44.097Z,9.37
2018-11-28T17:57:12.273Z,9.27
2018-11-28T17:59:40.906Z,10.93
2018-11-28T18:02:09.088Z,9.70
2018-11-28T18:04:37.298Z,9.40
2018-11-28T18:07:05.952Z,10.07
2018-11-28T18:09:34.126Z,9.50
2018-11-28T18:12:02.329Z,10.00
2018-11-28T18:14:30.527Z,11.70
2018-11-28T18:16:59.044Z,10.23
2018-11-28T18:19:27.264Z,10.73
2018-11-28T18:21:55.449Z,11.00
2018-11-28T18:24:23.630Z,10.50
2018-11-28T18:26:51.819Z,11.20
2018-11-28T18:29:20.088Z,10.83
2018-11-28T18:31:48.361Z,11.20
2018-11-28T18:34:16.553Z,9.87
2018-11-28T18:36:45.033Z,10.53
2018-11-28T18:39:13.226Z,11.33
2018-11-28T18:41:41.436Z,10.87
2018-11-28T18:44:09.619Z,11.00
2018-11-28T18:46:37.816Z,11.90
2018-11-28T18:49:06.309Z,12.27
2018-11-28T18:51:34.477Z,11.73
2018-11-28T18:54:02.658Z,11.90
2018-11-28T18:56:30.850Z,11.60
2018-11-28T18:58:59.044Z,11.83
2018-11-28T19:01:27.239Z,11.90
2018-11-28T19:03:55.764Z,11.57
2018-11-28T19:06:23.958Z,11.37
2018-11-28T19:08:52.137Z,10.53
2018-11-28T19:11:20.334Z,10.87
2018-11-28T19:13:48.517Z,10.13
2018-11-28T19:16:16.702Z,10.70
2018-11-28T19:18:44.885Z,9.80
2018-11-28T19:21:13.096Z,11.07
2018-11-28T19:23:41.281Z,11.73
2018-11-28T19:26:09.493Z,11.30
2018-11-28T19:28:37.712Z,12.07
2018-11-28T19:31:06.089Z,10.97
2018-11-28T19:33:34.270Z,9.87
2018-11-28T19:36:02.458Z,10.87
2018-11-28T19:38:30.660Z,12.07
2018-11-28T19:41:00.898Z,10.83
2018-11-28T19:43:29.152Z,11.70
2018-11-28T19:45:57.337Z,12.87
2018-11-28T19:48:25.570Z,16.07
2018-11-28T19:50:53.773Z,16.07
2018-11-28T19:53:22.110Z,16.73
2018-11-28T19:55:50.586Z,16.53
2018-11-28T19:58:18.805Z,12.93
2018-11-28T20:00:47.397Z,15.33
2018-11-28T20:03:15.814Z,16.70
2018-11-28T20:05:44.025Z,15.93
2018-11-28T20:08:12.763Z,11.10
2018-11-28T20:10:41.128Z,10.47
2018-11-28T20:13:09.973Z,11.57
2018-11-28T20:15:39.890Z,12.53
2018-11-28T20:18:08.098Z,10.43
2018-11-28T20:20:36.586Z,10.93
2018-11-28T20:23:06.320Z,11.50
2018-11-28T20:25:35.342Z,10.37
2018-11-28T20:28:05.152Z,9.57
2018-11-28T20:30:37.410Z,9.77
2018-11-28T20:33:07.667Z,9.77
2018-11-28T20:35:36.687Z,10.47
2018-11-28T20:38:06.490Z,9.40
2018-11-28T20:40:35.310Z,9.53
2018-11-28T20:43:03.588Z,9.93
2018-11-28T20:45:32.163Z,10.30
2018-11-28T20:48:00.758Z,10.27
2018-11-28T20:50:30.555Z,10.57
2018-11-28T20:53:03.613Z,10.07
2018-11-28T20:55:31.822Z,10.10
2018-11-28T20:57:59.997Z,10.70
2018-11-28T21:00:28.229Z,10.33
2018-11-28T21:02:56.422Z,10.63
2018-11-28T21:05:24.708Z,9.50
2018-11-28T21:07:53.053Z,10.23
2018-11-28T21:10:26.682Z,10.30
2018-11-28T21:12:54.979Z,9.43
2018-11-28T21:15:23.197Z,9.67
2018-11-28T21:17:51.406Z,9.53
2018-11-28T21:20:20.980Z,10.10
2018-11-28T21:22:55.253Z,9.27
2018-11-28T21:25:23.437Z,9.20
2018-11-28T21:27:52.350Z,9.63
2018-11-28T21:30:21.152Z,10.67
2018-11-28T21:32:50.484Z,9.20
2018-11-28T21:35:21.906Z,9.13
2018-11-28T21:37:50.096Z,9.57
2018-11-28T21:40:18.289Z,10.10
2018-11-28T21:42:46.493Z,10.20
2018-11-28T21:45:15.961Z,9.40
2018-11-28T21:47:44.380Z,10.17
2018-11-28T21:50:13.593Z,9.87
2018-11-28T21:52:41.817Z,10.20
2018-11-28T21:55:12.166Z,9.57
2018-11-28T21:57:40.320Z,10.30
2018-11-28T22:00:14.507Z,10.10
2018-11-28T22:02:42.705Z,9.03
2018-11-28T22:05:11.857Z,10.13
2018-11-28T22:07:40.052Z,10.00
2018-11-28T22:10:11.689Z,9.13
2018-11-28T22:12:40.149Z,10.53
2018-11-28T22:15:13.228Z,11.10
2018-11-28T22:17:42.556Z,10.67
2018-11-28T22:20:11.653Z,8.93
2018-11-28T22:22:39.856Z,10.33
2018-11-28T22:25:11.261Z,9.83
2018-11-28T22:27:39.453Z,10.07
2018-11-28T22:30:09.532Z,9.67
2018-11-28T22:32:37.698Z,9.83
2018-11-28T22:35:06.465Z,10.00
2018-11-28T22:37:34.651Z,8.60
2018-11-28T22:42:37.504Z,9.87
2018-11-28T22:45:11.318Z,8.87
2018-11-28T22:47:39.506Z,8.40
2018-11-28T22:50:08.989Z,9.90
2018-11-28T22:52:37.165Z,9.37
2018-11-28T22:55:07.063Z,9.00
2018-11-28T22:57:35.753Z,9.40
2018-11-28T23:00:04.857Z,9.27
2018-11-28T23:02:45.218Z,8.90
2018-11-28T23:05:13.100Z,9.03
2018-11-28T23:07:41.281Z,8.80
2018-11-28T23:10:09.468Z,9.47
2018-11-28T23:12:37.648Z,9.77
2018-11-28T23:15:06.599Z,9.83
2018-11-28T23:17:34.772Z,9.63
2018-11-28T23:20:02.988Z,8.70
2018-11-28T23:22:31.289Z,8.87
2018-11-28T23:24:59.454Z,9.17
2018-11-28T23:27:27.624Z,8.67
2018-11-28T23:29:55.825Z,9.03
2018-11-28T23:32:24.061Z,9.37
2018-11-28T23:34:52.253Z,8.87
2018-11-28T23:37:20.441Z,8.87
2018-11-28T23:39:48.605Z,8.30
2018-11-28T23:42:16.784Z,9.60
2018-11-28T23:44:44.952Z,9.07
2018-11-28T23:47:13.149Z,7.93
2018-11-28T23:49:41.329Z,9.00
2018-11-28T23:52:09.525Z,8.83
2018-11-28T23:54:37.751Z,8.83
2018-11-28T23:57:06.503Z,9.27
2018-11-28T23:59:34.677Z,9.03
